Time;durP1;ratioP1;P1;durP2;ratioP2;P2;SDS_P1;SDS_P2;PMS_P1;PMS_P2;Temp;Humidity;BMP_temperature;BMP_pressure;BME280_temperature;BME280_humidity;BME280_pressure;Samples;Min_cycle;Max_cycle;Signal;HPM_P1;HPM_P2
2021/03/28 00:02:28;;;;;;;;;;;;;;;19.10;55.67;102507.22;5052303;28;20025;-71
2021/03/28 00:05:31;;;;;;;3.55;1.25;;;;;;;19.10;55.85;102508.97;5051144;28;19916;-73
2021/03/28 00:08:00;;;;;;;2.40;0.90;;;;;;;19.07;55.69;102493.19;5051241;28;20080;-71
2021/03/28 00:10:33;;;;;;;2.22;0.85;;;;;;;19.07;55.82;102504.56;5050533;28;20032;-72
2021/03/28 00:13:04;;;;;;;;;;;;;;;19.09;55.70;102496.72;5047318;28;20021;-72
2021/03/28 00:15:36;;;;;;;2.42;1.02;;;;;;;19.03;55.69;102487.00;5034264;28;19924;-71
2021/03/28 00:18:13;;;;;;;4.50;1.42;;;;;;;19.02;55.52;102489.59;5040538;28;20037;-72
2021/03/28 00:20:40;;;;;;;2.85;1.67;;;;;;;19.11;55.21;102498.50;5046418;28;20119;-72
2021/03/28 00:23:26;;;;;;;3.92;1.65;;;;;;;19.19;55.12;102496.06;5033540;28;20490;-72
2021/03/28 00:26:16;;;;;;;2.13;1.10;;;;;;;19.17;55.34;102488.16;5023432;28;20124;-71
2021/03/28 00:28:45;;;;;;;3.15;1.83;;;;;;;19.17;55.10;102484.66;5048249;28;20025;-72
2021/03/28 00:31:23;;;;;;;2.25;1.42;;;;;;;19.30;54.86;102488.38;5054784;28;20060;-71
2021/03/28 00:34:14;;;;;;;2.67;1.05;;;;;;;19.29;55.04;102490.09;5053005;28;21973;-72
2021/03/28 00:36:46;;;;;;;2.60;0.93;;;;;;;19.28;55.22;102483.97;5059109;28;20059;-72
2021/03/28 00:39:28;;;;;;;1.92;1.08;;;;;;;19.33;55.00;102481.44;5048912;28;20033;-73
2021/03/28 00:42:01;;;;;;;3.97;1.83;;;;;;;19.33;54.74;102472.69;5045648;28;20025;-71
2021/03/28 00:44:29;;;;;;;4.25;1.17;;;;;;;19.32;54.79;102484.94;5031138;28;20025;-72
2021/03/28 00:47:01;;;;;;;1.23;0.80;;;;;;;19.36;54.83;102486.72;5032288;28;20028;-72
2021/03/28 00:49:35;;;;;;;1.60;1.02;;;;;;;19.38;54.76;102487.63;5012148;28;20094;-72
2021/03/28 00:52:05;;;;;;;2.58;1.10;;;;;;;19.37;54.92;102487.59;5038694;28;20022;-71
2021/03/28 00:54:49;;;;;;;1.73;0.80;;;;;;;19.41;54.95;102495.56;5033109;28;20467;-72
2021/03/28 00:57:32;;;;;;;1.50;1.08;;;;;;;19.45;54.74;102494.78;5020007;28;20539;-72
2021/03/28 01:00:38;;;;;;;0.95;0.63;;;;;;;19.44;54.76;102490.38;5030921;28;20036;-72
2021/03/28 01:03:10;;;;;;;2.85;1.48;;;;;;;19.44;54.81;102493.00;5017012;28;20043;-72
2021/03/28 01:05:48;;;;;;;2.50;1.17;;;;;;;19.42;54.62;102480.72;5036626;28;20021;-72
2021/03/28 01:08:38;;;;;;;1.88;1.15;;;;;;;19.47;54.54;102493.06;5030121;28;20021;-72
2021/03/28 01:11:20;;;;;;;1.45;1.00;;;;;;;19.46;54.67;102480.81;5016962;28;20040;-72
2021/03/28 01:14:18;;;;;;;2.40;0.93;;;;;;;19.43;54.40;102451.88;5012241;28;20039;-72
2021/03/28 01:17:19;;;;;;;3.28;1.45;;;;;;;19.49;54.52;102480.88;5028066;28;20017;-73
2021/03/28 01:19:58;;;;;;;2.83;0.93;;;;;;;19.38;54.62;102448.28;5029957;28;20021;-73
2021/03/28 01:22:33;;;;;;;1.55;0.73;;;;;;;19.48;54.57;102455.44;5014596;28;20017;-73
2021/03/28 01:25:36;;;;;;;1.95;0.90;;;;;;;19.52;54.68;102457.31;5033412;28;20021;-72
2021/03/28 01:28:14;;;;;;;1.98;0.93;;;;;;;19.50;54.73;102464.25;5012444;28;20097;-72
2021/03/28 01:30:44;;;;;;;2.85;1.20;;;;;;;19.52;54.57;102459.03;5028802;28;20030;-73
2021/03/28 01:33:17;;;;;;;1.15;0.75;;;;;;;19.54;54.54;102459.97;5018989;28;20552;-72
2021/03/28 01:36:04;;;;;;;1.70;0.80;;;;;;;19.50;54.83;102461.63;5032503;28;20112;-71
2021/03/28 01:38:34;;;;;;;2.07;1.20;;;;;;;19.52;54.44;102446.81;5025281;28;20027;-71
2021/03/28 01:41:17;;;;;;;1.52;0.70;;;;;;;19.57;54.54;102463.53;5025980;28;20036;-71
2021/03/28 01:44:11;;;;;;;1.40;0.85;;;;;;;19.50;54.70;102445.91;5011578;28;20484;-71
2021/03/28 01:46:56;;;;;;;2.45;0.80;;;;;;;19.54;54.44;102458.22;5021081;28;20047;-71
2021/03/28 01:49:37;;;;;;;1.85;0.82;;;;;;;19.59;54.32;102455.69;5036936;28;20036;-71
2021/03/28 01:52:15;;;;;;;3.67;1.10;;;;;;;19.57;54.72;102452.16;5031699;28;21463;-71
2021/03/28 01:54:55;;;;;;;1.05;0.73;;;;;;;19.55;54.26;102445.97;5017928;28;20033;-72
2021/03/28 01:57:42;;;;;;;1.77;0.80;;;;;;;19.56;54.51;102438.13;5027533;28;20029;-72
2021/03/28 02:00:26;;;;;;;1.70;0.70;;;;;;;19.56;54.65;102434.63;5036839;28;20033;-72
2021/03/28 02:02:57;;;;;;;1.73;0.80;;;;;;;19.60;54.36;102452.19;5026996;28;20024;-72
2021/03/28 02:05:49;;;;;;;2.95;0.90;;;;;;;19.63;54.79;102446.97;5020253;28;20079;-72
2021/03/28 02:08:14;;;;;;;2.03;0.90;;;;;;;19.61;54.51;102440.81;5034139;28;20384;-72
2021/03/28 02:11:09;;;;;;;1.60;0.57;;;;;;;19.60;54.44;102441.72;5035738;28;20033;-73
2021/03/28 02:14:02;;;;;;;1.27;0.70;;;;;;;19.65;54.37;102437.38;5048224;28;20029;-73
2021/03/28 02:16:57;;;;;;;1.38;0.60;;;;;;;19.62;54.46;102443.47;5040368;28;20083;-72
2021/03/28 02:19:34;;;;;;;0.75;0.57;;;;;;;19.59;54.43;102432.94;5031751;28;20278;-72
2021/03/28 02:22:31;;;;;;;1.88;0.60;;;;;;;19.67;54.36;102440.94;5029517;28;21499;-72
2021/03/28 02:25:10;;;;;;;2.40;0.82;;;;;;;19.64;54.48;102438.25;5014325;28;20026;-72
2021/03/28 02:27:59;;;;;;;1.65;0.68;;;;;;;19.61;54.16;102425.94;5021199;28;20024;-73
2021/03/28 02:30:29;;;;;;;0.88;0.50;;;;;;;19.66;54.34;102438.28;5027944;28;20079;-72
2021/03/28 02:33:06;;;;;;;2.00;0.70;;;;;;;19.64;54.55;102440.88;5033138;28;20025;-72
2021/03/28 02:35:38;;;;;;;1.88;0.70;;;;;;;19.61;54.46;102435.56;5036281;28;20025;-72
2021/03/28 02:38:10;;;;;;;0.85;0.65;;;;;;;19.58;54.55;102436.44;5017392;28;20036;-73
2021/03/28 02:40:52;;;;;;;1.45;0.65;;;;;;;19.56;54.70;102429.38;5030727;28;20028;-72
2021/03/28 02:43:45;;;;;;;1.15;0.60;;;;;;;19.52;54.93;102436.31;5033493;28;20021;-72
2021/03/28 02:46:26;;;;;;;1.17;0.70;;;;;;;19.49;54.88;102431.00;5033278;28;20041;-73
2021/03/28 02:49:10;;;;;;;2.10;1.02;;;;;;;19.48;54.92;102429.22;5013318;28;20040;-73
2021/03/28 02:52:00;;;;;;;1.55;0.65;;;;;;;19.47;55.02;102421.34;5039239;28;20062;-71
2021/03/28 02:55:00;;;;;;;2.28;0.98;;;;;;;19.45;54.91;102430.94;5036340;28;20503;-72
2021/03/28 02:57:53;;;;;;;1.13;0.40;;;;;;;19.43;55.01;102422.13;5029127;28;20018;-73
2021/03/28 03:00:46;;;;;;;1.33;0.97;;;;;;;19.43;55.02;102428.28;5020679;28;20471;-73
2021/03/28 03:03:26;;;;;;;1.30;0.80;;;;;;;19.42;54.82;102417.75;5029273;28;20021;-73
2021/03/28 03:06:13;;;;;;;1.33;0.75;;;;;;;19.40;54.83;102417.72;5032419;28;20116;-74
2021/03/28 03:08:55;;;;;;;1.33;0.70;;;;;;;19.40;55.00;102416.84;5032967;28;20024;-73
2021/03/28 03:11:49;;;;;;;1.45;0.65;;;;;;;19.39;54.83;102415.06;5032473;28;20032;-74
2021/03/28 03:14:42;;;;;;;3.63;1.90;;;;;;;19.36;54.70;102407.13;5025560;28;20025;-73
2021/03/28 03:17:49;;;;;;;1.17;0.63;;;;;;;19.37;54.99;102415.03;5026849;28;20057;-73
2021/03/28 03:20:53;;;;;;;2.25;1.00;;;;;;;19.36;54.84;102425.50;4972835;28;20072;-73
2021/03/28 03:23:56;;;;;;;3.97;1.37;;;;;;;19.35;55.06;102416.75;5030561;28;20651;-73
2021/03/28 03:26:39;;;;;;;1.58;0.73;;;;;;;19.34;54.78;102422.00;5013517;28;20060;-72
2021/03/28 03:29:24;;;;;;;1.85;0.80;;;;;;;19.34;54.78;102425.50;5014917;28;20476;-73
2021/03/28 03:32:08;;;;;;;1.90;0.77;;;;;;;19.32;54.81;102421.09;5031365;28;20506;-73
2021/03/28 03:34:40;;;;;;;;;;;;;;;19.32;54.88;102427.22;5033068;28;20435;-72
2021/03/28 03:37:32;;;;;;;4.85;1.02;;;;;;;19.30;54.26;102431.56;5038507;28;19999;-72
2021/03/28 03:40:56;;;;;;;2.20;1.00;;;;;;;19.30;54.75;102420.19;5030038;28;20607;-72
2021/03/28 03:43:48;;;;;;;1.67;0.80;;;;;;;19.30;54.55;102409.69;4959506;28;20035;-72
2021/03/28 03:46:31;;;;;;;3.05;0.80;;;;;;;19.28;54.73;102412.28;5047784;28;20051;-72
2021/03/28 03:49:14;;;;;;;1.45;0.70;;;;;;;19.26;54.91;102414.88;5049743;28;20032;-73
2021/03/28 03:51:58;;;;;;;1.73;0.82;;;;;;;19.25;54.69;102415.72;5056776;28;20085;-72
2021/03/28 03:54:42;;;;;;;;;;;;;;;19.26;54.74;102420.13;5052041;28;20437;-73
2021/03/28 03:57:28;;;;;;;0.68;0.60;;;;;;;19.25;54.78;102412.22;5048804;28;19939;-73
2021/03/28 04:00:07;;;;;;;1.52;0.70;;;;;;;19.22;54.87;102404.28;5046332;28;20035;-73
2021/03/28 04:02:38;;;;;;;1.27;0.68;;;;;;;19.23;55.02;102406.06;5049671;28;20374;-72
2021/03/28 04:05:48;;;;;;;2.03;1.17;;;;;;;19.20;54.68;102403.41;5032251;28;20027;-73
2021/03/28 04:08:51;;;;;;;1.42;0.80;;;;;;;19.21;54.77;102392.91;5046397;28;20033;-73
2021/03/28 04:12:13;;;;;;;3.58;0.70;;;;;;;19.20;54.85;102383.31;5051846;28;20032;-75
2021/03/28 04:15:06;;;;;;;1.83;0.82;;;;;;;19.20;54.50;102382.44;4992960;28;20038;-73
2021/03/28 04:18:03;;;;;;;1.90;0.77;;;;;;;19.17;54.86;102385.00;4988985;28;20077;-75
2021/03/28 04:20:34;;;;;;;1.10;0.63;;;;;;;19.18;54.65;102379.78;5042076;28;20048;-72
2021/03/28 04:23:18;;;;;;;2.08;1.27;;;;;;;19.18;54.79;102382.41;5049780;28;20021;-73
2021/03/28 04:25:58;;;;;;;2.47;0.80;;;;;;;19.15;54.48;102384.09;5031348;28;20032;-72
2021/03/28 04:28:23;;;;;;;1.15;0.68;;;;;;;19.20;54.71;102392.91;5052228;28;20040;-73
2021/03/28 04:31:03;;;;;;;1.67;0.65;;;;;;;19.24;54.37;102389.47;5050978;28;20363;-72
2021/03/28 04:33:48;;;;;;;0.95;0.60;;;;;;;19.27;54.43;102395.66;5051822;28;20091;-73
2021/03/28 04:36:17;;;;;;;1.42;0.50;;;;;;;19.26;54.37;102396.50;5049177;28;20074;-72
2021/03/28 04:38:53;;;;;;;1.42;0.73;;;;;;;19.32;54.23;102398.38;5044800;28;20025;-73
2021/03/28 04:41:36;;;;;;;1.30;0.80;;;;;;;19.39;54.00;102399.31;5046788;28;20036;-72
2021/03/28 04:44:23;;;;;;;1.17;0.70;;;;;;;19.38;54.24;102400.19;5067315;28;20021;-73
2021/03/28 04:46:58;;;;;;;1.35;0.68;;;;;;;19.38;54.26;102392.31;5049751;28;20451;-72
2021/03/28 04:49:54;;;;;;;1.70;0.70;;;;;;;19.46;53.97;102388.97;5031378;28;20490;-72
2021/03/28 04:53:07;;;;;;;0.85;0.60;;;;;;;19.45;54.00;102378.44;5049179;28;20449;-73
2021/03/28 04:55:45;;;;;;;1.88;0.60;;;;;;;19.45;54.01;102374.09;5053520;28;20147;-71
2021/03/28 04:58:22;;;;;;;1.77;0.77;;;;;;;19.48;53.84;102370.59;5050683;28;20029;-73
2021/03/28 05:01:32;;;;;;;1.13;0.52;;;;;;;19.47;54.14;102363.63;5041136;28;20033;-72
2021/03/28 05:04:27;;;;;;;2.28;0.80;;;;;;;19.49;53.96;102375.03;5012137;28;20048;-72
2021/03/28 05:07:26;;;;;;;1.25;0.50;;;;;;;19.54;53.89;102378.63;5049628;28;20078;-72
2021/03/28 05:09:57;;;;;;;1.10;0.65;;;;;;;19.54;54.08;102376.88;5053297;28;20032;-73
2021/03/28 05:12:33;;;;;;;1.80;0.80;;;;;;;19.50;54.08;102361.94;5057677;28;20065;-72
2021/03/28 05:15:04;;;;;;;1.98;0.60;;;;;;;19.56;53.94;102369.91;5047175;28;20107;-72
2021/03/28 05:17:57;;;;;;;0.98;0.50;;;;;;;19.52;53.92;102357.59;5046953;28;20332;-73
2021/03/28 05:20:41;;;;;;;1.10;0.47;;;;;;;19.54;54.16;102361.13;5036503;28;20028;-74
2021/03/28 05:23:42;;;;;;;3.63;0.90;;;;;;;19.57;53.96;102360.31;5049739;28;20035;-73
2021/03/28 05:26:22;;;;;;;0.85;0.50;;;;;;;19.57;54.05;102366.44;5004384;28;20040;-73
2021/03/28 05:29:32;;;;;;;1.10;0.63;;;;;;;19.56;54.03;102358.53;5054962;28;20482;-72
2021/03/28 05:32:18;;;;;;;1.23;0.50;;;;;;;19.61;53.90;102356.84;5038107;28;20040;-72
2021/03/28 05:35:14;;;;;;;1.10;0.73;;;;;;;19.56;53.88;102361.16;5037832;28;20483;-72
2021/03/28 05:38:10;;;;;;;1.08;0.50;;;;;;;19.56;53.92;102355.91;5055714;28;20378;-72
2021/03/28 05:41:14;;;;;;;1.83;0.80;;;;;;;19.63;53.95;102355.13;5045342;28;20025;-72
2021/03/28 05:44:01;;;;;;;1.10;0.65;;;;;;;19.61;53.97;102360.34;5059970;28;20676;-73
2021/03/28 05:46:26;;;;;;;0.95;0.50;;;;;;;19.63;53.89;102365.63;5036006;28;20557;-75
2021/03/28 05:49:10;;;;;;;0.32;0.30;;;;;;;19.66;53.68;102364.78;5032042;28;20171;-73
2021/03/28 05:52:05;;;;;;;1.65;0.82;;;;;;;19.64;53.95;102362.13;5064259;28;20028;-72
2021/03/28 05:54:58;;;;;;;1.77;0.65;;;;;;;19.66;53.90;102362.16;5053729;28;20032;-72
2021/03/28 05:57:42;;;;;;;1.13;0.70;;;;;;;19.67;53.77;102356.94;5054867;28;20104;-73
2021/03/28 06:00:26;;;;;;;;;;;;;;;19.67;53.74;102356.94;5036815;28;20072;-73
2021/03/28 06:03:13;;;;;;;0.52;0.43;;;;;;;19.68;54.03;102368.31;5048764;28;19966;-73
2021/03/28 06:05:57;;;;;;;1.65;1.00;;;;;;;19.67;53.86;102366.56;5051938;28;20083;-73
2021/03/28 06:08:38;;;;;;;;;;;;;;;19.70;53.79;102367.50;5055493;28;20025;-72
2021/03/28 06:11:28;;;;;;;0.75;0.55;;;;;;;19.76;53.83;102359.69;5050139;28;19919;-71
2021/03/28 06:14:31;;;;;;;0.90;0.60;;;;;;;19.75;53.78;102357.91;5054754;28;20032;-72
2021/03/28 06:17:15;;;;;;;2.30;0.50;;;;;;;19.82;53.64;102357.16;5051705;28;20064;-72
2021/03/28 06:20:11;;;;;;;1.42;0.52;;;;;;;19.81;53.45;102365.88;5054598;28;20021;-72
2021/03/28 06:23:00;;;;;;;0.95;0.50;;;;;;;19.75;53.67;102372.78;5050732;28;20063;-74
2021/03/28 06:25:32;;;;;;;1.77;0.88;;;;;;;19.76;53.72;102377.19;5044844;28;20025;-73
2021/03/28 06:28:24;;;;;;;1.58;0.60;;;;;;;19.75;53.78;102380.66;5068972;28;20060;-73
2021/03/28 06:31:14;;;;;;;1.65;0.75;;;;;;;19.73;53.74;102379.78;5037585;28;20040;-72
2021/03/28 06:33:58;;;;;;;1.50;0.90;;;;;;;19.70;53.89;102378.00;5046359;28;20032;-73
2021/03/28 06:36:29;;;;;;;;;;;;;;;19.69;53.97;102375.34;5053673;28;20033;-73
2021/03/28 06:39:27;;;;;;;1.45;0.80;;;;;;;19.65;53.89;102373.53;5067317;28;19913;-73
2021/03/28 06:42:15;;;;;;;1.35;0.50;;;;;;;19.63;54.21;102373.50;5047555;28;20033;-72
2021/03/28 06:44:59;;;;;;;0.70;0.50;;;;;;;19.65;53.42;102377.03;5036372;28;20530;-72
2021/03/28 06:47:53;;;;;;;1.65;0.85;;;;;;;19.63;54.22;102384.88;5035437;28;20029;-72
2021/03/28 06:50:30;;;;;;;0.77;0.47;;;;;;;19.61;53.96;102372.59;5038842;28;20463;-73
2021/03/28 06:53:20;;;;;;;1.02;0.57;;;;;;;19.62;54.09;102385.72;5058350;28;20108;-72
2021/03/28 06:55:46;;;;;;;1.00;0.45;;;;;;;19.62;54.24;102387.47;5052976;28;20056;-74
2021/03/28 06:58:48;;;;;;;1.67;0.60;;;;;;;19.61;53.96;102394.47;5048520;28;20082;-74
2021/03/28 07:01:53;;;;;;;3.65;1.08;;;;;;;19.60;53.76;102387.44;5052888;28;20029;-73
2021/03/28 07:04:43;;;;;;;3.03;1.13;;;;;;;19.59;54.11;102375.22;5032446;28;20083;-73
2021/03/28 07:07:46;;;;;;;1.98;0.90;;;;;;;19.61;54.15;102373.47;5053106;28;20086;-74
2021/03/28 07:10:29;;;;;;;1.55;0.75;;;;;;;19.69;54.06;102378.84;5036201;28;20021;-72
2021/03/28 07:13:03;;;;;;;0.63;0.45;;;;;;;19.72;53.88;102371.03;5052806;28;20056;-72
2021/03/28 07:16:07;;;;;;;1.25;0.60;;;;;;;19.67;54.17;102371.81;5056211;28;20111;-73
2021/03/28 07:18:51;;;;;;;4.50;0.80;;;;;;;19.69;54.24;102380.59;5037378;28;20187;-72
2021/03/28 07:21:21;;;;;;;;;;;;;;;19.70;54.18;102378.00;5052922;28;20382;-74
2021/03/28 07:24:05;;;;;;;1.55;0.77;;;;;;;19.71;54.07;102381.50;5039581;28;19955;-72
2021/03/28 07:26:42;;;;;;;1.10;0.60;;;;;;;19.75;54.12;102383.28;5035338;28;20420;-70
2021/03/28 07:29:20;;;;;;;2.40;0.90;;;;;;;19.72;54.43;102384.16;5035070;28;20028;-72
2021/03/28 07:32:24;;;;;;;0.73;0.60;;;;;;;19.72;54.33;102380.63;5044423;28;20481;-71
2021/03/28 07:35:02;;;;;;;2.75;0.82;;;;;;;19.69;54.26;102373.59;5037461;28;20363;-72
2021/03/28 07:37:37;;;;;;;2.10;1.02;;;;;;;19.69;54.43;102373.59;5050519;28;20059;-71
2021/03/28 07:40:21;;;;;;;3.03;0.80;;;;;;;19.67;54.33;102375.31;5055041;28;20029;-71
2021/03/28 07:42:57;;;;;;;;;;;;;;;19.68;54.36;102369.19;5051496;28;20032;-72
2021/03/28 07:45:49;;;;;;;1.95;1.05;;;;;;;19.68;54.31;102363.06;5052926;28;20453;-72
2021/03/28 07:48:34;;;;;;;3.55;1.00;;;;;;;19.71;54.08;102368.38;5051569;28;20393;-71
2021/03/28 07:51:45;;;;;;;1.48;0.70;;;;;;;19.69;54.30;102355.22;5020022;28;20052;-72
2021/03/28 07:54:33;;;;;;;1.90;0.70;;;;;;;19.71;54.10;102365.75;5049773;28;20052;-73
2021/03/28 07:57:42;;;;;;;0.70;0.57;;;;;;;19.70;54.23;102375.38;5050421;28;20032;-72
2021/03/28 08:00:17;;;;;;;1.55;0.63;;;;;;;19.69;54.43;102380.59;5031948;28;20032;-70
2021/03/28 08:03:08;;;;;;;1.63;0.60;;;;;;;19.56;54.28;102351.53;5049185;28;20021;-71
2021/03/28 08:05:51;;;;;;;3.22;1.10;;;;;;;19.66;54.26;102365.66;5049149;28;20033;-74
2021/03/28 08:08:35;;;;;;;2.22;0.93;;;;;;;19.66;54.32;102370.03;5039184;28;20393;-71
2021/03/28 08:11:22;;;;;;;1.50;0.88;;;;;;;19.62;54.49;102364.75;5036521;28;20021;-71
2021/03/28 08:14:05;;;;;;;1.48;0.80;;;;;;;19.66;54.55;102375.28;5037248;28;20521;-75
2021/03/28 08:17:21;;;;;;;1.60;0.70;;;;;;;19.66;54.41;102364.78;5057313;28;20032;-73
2021/03/28 08:20:20;;;;;;;4.10;0.88;;;;;;;19.63;54.53;102370.88;5009644;28;20080;-74
2021/03/28 08:23:05;;;;;;;2.55;0.55;;;;;;;19.61;54.43;102357.72;5041587;28;20081;-73
2021/03/28 08:25:49;;;;;;;1.90;0.65;;;;;;;19.63;54.62;102370.88;5051448;28;20036;-73
2021/03/28 08:28:41;;;;;;;3.25;1.10;;;;;;;19.63;54.47;102378.75;5041243;28;20044;-72
2021/03/28 08:31:31;;;;;;;2.28;0.82;;;;;;;19.63;54.62;102377.00;5013376;28;20119;-73
2021/03/28 08:34:15;;;;;;;2.95;0.90;;;;;;;19.57;54.82;102361.19;5032944;28;20366;-72
2021/03/28 08:36:59;;;;;;;4.53;1.10;;;;;;;19.60;54.62;102369.06;5050520;28;20036;-75
2021/03/28 08:40:10;;;;;;;3.10;1.10;;;;;;;19.60;54.82;102368.22;5045883;28;20045;-72
2021/03/28 08:42:59;;;;;;;4.45;1.20;;;;;;;19.60;54.97;102374.31;5050568;28;20065;-71
2021/03/28 08:45:31;;;;;;;3.65;1.15;;;;;;;19.54;54.95;102369.00;5029904;28;20050;-72
2021/03/28 08:48:00;;;;;;;1.75;1.10;;;;;;;19.57;55.11;102371.69;5032082;28;20025;-72
2021/03/28 08:50:55;;;;;;;3.38;1.25;;;;;;;19.54;54.99;102374.25;5012628;28;20076;-72
2021/03/28 08:53:21;;;;;;;3.55;1.50;;;;;;;19.54;54.94;102374.25;5020740;28;20376;-72
2021/03/28 08:56:08;;;;;;;3.15;1.08;;;;;;;19.53;54.99;102367.25;5025596;28;20036;-75
2021/03/28 08:58:54;;;;;;;4.85;1.40;;;;;;;19.51;55.07;102376.81;5025134;28;20028;-72
2021/03/28 09:01:37;;;;;;;6.80;1.25;;;;;;;19.52;54.81;102380.31;5030084;28;20038;-72
2021/03/28 09:04:12;;;;;;;3.60;1.00;;;;;;;19.49;54.83;102389.03;5030854;28;20017;-71
2021/03/28 09:06:48;;;;;;;4.80;1.88;;;;;;;19.45;55.08;102384.59;5030687;28;20056;-72
2021/03/28 09:09:24;;;;;;;2.38;1.00;;;;;;;19.46;54.86;102370.59;5034982;28;20032;-72
2021/03/28 09:12:16;;;;;;;3.72;1.00;;;;;;;19.44;54.81;102374.06;5028664;28;20395;-73
2021/03/28 09:14:51;;;;;;;3.83;1.10;;;;;;;19.46;54.68;102378.47;5042487;28;20104;-72
2021/03/28 09:17:32;;;;;;;5.72;2.30;;;;;;;19.45;54.76;102379.34;5030039;28;20033;-72
2021/03/28 09:20:40;;;;;;;8.80;2.20;;;;;;;19.46;54.42;102393.34;5039336;28;20074;-72
2021/03/28 09:23:34;;;;;;;6.00;2.63;;;;;;;19.40;54.31;102377.47;5012986;28;20034;-72
2021/03/28 09:26:05;;;;;;;;;;;;;;;19.46;54.25;102401.22;5035867;28;21087;-72
2021/03/28 09:28:49;;;;;;;15.63;3.10;;;;;;;19.46;54.22;102398.59;5022036;28;19982;-74
2021/03/28 09:31:30;;;;;;;7.53;2.30;;;;;;;19.45;54.28;102388.94;5033569;28;20124;-73
2021/03/28 09:34:01;;;;;;;9.77;3.20;;;;;;;19.45;53.93;102400.31;5023315;28;20033;-73
2021/03/28 09:36:29;;;;;;;10.38;3.05;;;;;;;19.45;54.45;102395.06;5029750;28;20033;-73
2021/03/28 09:39:29;;;;;;;8.38;2.78;;;;;;;19.43;54.46;102396.78;5029487;28;20028;-75
2021/03/28 09:42:32;;;;;;;12.43;3.10;;;;;;;19.42;54.63;102391.50;5012223;28;20051;-73
2021/03/28 09:45:21;;;;;;;7.65;2.75;;;;;;;19.42;54.49;102387.16;5028639;28;20053;-73
2021/03/28 09:48:05;;;;;;;9.60;3.92;;;;;;;19.42;54.63;102396.75;5017738;28;20383;-73
2021/03/28 09:51:09;;;;;;;6.85;3.05;;;;;;;19.40;54.65;102387.97;5039876;28;20025;-73
2021/03/28 09:53:59;;;;;;;7.15;3.08;;;;;;;19.39;54.82;102392.34;5032576;28;20041;-73
2021/03/28 09:56:27;;;;;;;5.82;3.03;;;;;;;19.40;54.75;102401.97;5021044;28;20041;-73
2021/03/28 09:59:15;;;;;;;10.20;4.07;;;;;;;19.38;54.73;102408.06;5040093;28;20096;-72
2021/03/28 10:02:13;;;;;;;8.30;4.13;;;;;;;19.37;54.71;102409.78;5018601;28;20040;-73
2021/03/28 10:05:04;;;;;;;9.63;3.63;;;;;;;19.38;54.51;102413.31;5016479;28;20025;-72
2021/03/28 10:07:41;;;;;;;8.23;3.63;;;;;;;19.35;54.48;102401.00;5023583;28;20143;-72
2021/03/28 10:10:29;;;;;;;6.32;3.28;;;;;;;19.35;54.79;102414.13;5015631;28;20029;-72
2021/03/28 10:13:10;;;;;;;8.65;3.42;;;;;;;19.36;54.72;102405.41;5039064;28;20064;-73
2021/03/28 10:15:53;;;;;;;7.25;3.17;;;;;;;19.36;54.57;102429.00;5041413;28;20017;-72
2021/03/28 10:18:43;;;;;;;7.45;3.38;;;;;;;19.32;54.48;102381.75;5038289;28;20025;-73
2021/03/28 10:21:27;;;;;;;8.93;3.10;;;;;;;19.34;54.48;102396.66;5042819;28;20487;-74
2021/03/28 10:24:13;;;;;;;7.35;3.58;;;;;;;19.34;54.52;102394.03;5021752;28;20080;-75
2021/03/28 10:26:43;;;;;;;4.13;3.10;;;;;;;19.30;54.32;102384.34;5034695;28;20030;-74
2021/03/28 10:29:18;;;;;;;4.45;2.17;;;;;;;19.34;54.56;102399.28;5042417;28;20053;-74
2021/03/28 10:32:18;;;;;;;10.07;4.10;;;;;;;19.32;54.44;102403.59;5012523;28;20111;-74
2021/03/28 10:34:58;;;;;;;7.13;3.40;;;;;;;19.30;54.39;102405.31;5000754;28;20053;-74
2021/03/28 10:37:57;;;;;;;7.75;3.78;;;;;;;19.33;54.52;102410.63;5033004;28;20521;-74
2021/03/28 10:40:44;;;;;;;8.73;4.10;;;;;;;19.33;54.48;102408.00;5045316;28;20086;-73
2021/03/28 10:43:30;;;;;;;7.35;3.38;;;;;;;19.34;54.54;102404.53;5037936;28;20028;-74
2021/03/28 10:46:26;;;;;;;7.75;3.75;;;;;;;19.32;54.40;102397.47;5020161;28;20102;-74
2021/03/28 10:49:03;;;;;;;5.53;3.13;;;;;;;19.32;54.49;102401.00;5050713;28;20047;-74
2021/03/28 10:51:40;;;;;;;5.65;2.83;;;;;;;19.32;54.11;102402.72;5031323;28;20031;-72
2021/03/28 10:54:59;;;;;;;10.80;4.68;;;;;;;19.30;54.30;102399.19;5047656;28;20062;-72
2021/03/28 10:57:48;;;;;;;6.20;3.00;;;;;;;19.31;54.21;102412.34;5014225;28;20475;-72
2021/03/28 11:00:46;;;;;;;8.10;2.97;;;;;;;19.32;54.24;102426.34;5031139;28;20070;-71
2021/03/28 11:03:36;;;;;;;9.25;3.85;;;;;;;19.31;54.38;102409.72;5042535;28;20071;-72
2021/03/28 11:06:35;;;;;;;8.82;3.55;;;;;;;19.36;54.13;102417.63;5047371;28;20029;-73
2021/03/28 11:09:09;;;;;;;5.22;2.80;;;;;;;19.38;54.10;102416.81;5045858;28;20032;-73
2021/03/28 11:11:56;;;;;;;7.35;3.28;;;;;;;19.37;53.88;102420.28;5042515;28;20031;-70
2021/03/28 11:14:40;;;;;;;5.07;2.97;;;;;;;19.42;53.88;102421.25;5056269;28;20048;-72
2021/03/28 11:17:39;;;;;;;6.35;3.67;;;;;;;19.45;54.13;102418.69;5026076;28;20033;-75
2021/03/28 11:20:20;;;;;;;7.75;4.28;;;;;;;19.48;54.16;102421.34;5042889;28;20497;-73
2021/03/28 11:22:54;;;;;;;10.98;3.83;;;;;;;19.56;54.38;102425.03;5026735;28;20111;-72
2021/03/28 11:25:23;;;;;;;9.60;3.97;;;;;;;19.56;54.51;102411.91;5043585;28;20731;-74
2021/03/28 11:28:25;;;;;;;8.40;3.45;;;;;;;19.65;54.45;102424.25;5048345;28;20044;-74
2021/03/28 11:31:26;;;;;;;8.80;4.32;;;;;;;19.68;54.65;102424.31;5036447;28;20483;-74
2021/03/28 11:34:19;;;;;;;7.13;3.88;;;;;;;19.72;54.30;102427.88;5052867;28;20052;-74
2021/03/28 11:37:02;;;;;;;5.38;2.95;;;;;;;19.74;54.44;102434.91;5050428;28;20053;-76
2021/03/28 11:39:29;;;;;;;5.20;3.97;;;;;;;19.66;54.46;102431.28;5035333;28;20060;-75
2021/03/28 11:42:20;;;;;;;6.32;2.88;;;;;;;19.68;54.70;102424.31;5058734;28;20028;-76
2021/03/28 11:45:36;;;;;;;6.93;3.40;;;;;;;19.70;54.87;102448.84;5055699;28;20031;-74
2021/03/28 11:48:22;;;;;;;6.28;2.97;;;;;;;19.69;54.77;102438.31;5012890;28;20067;-73
2021/03/28 11:50:49;;;;;;;11.52;3.67;;;;;;;19.67;54.90;102437.41;5013878;28;20551;-73
2021/03/28 11:53:24;;;;;;;7.22;4.15;;;;;;;19.65;54.99;102439.13;5028808;28;20060;-74
2021/03/28 11:55:52;;;;;;;7.72;3.10;;;;;;;19.66;54.91;102440.91;5005158;28;20375;-72
2021/03/28 11:58:17;;;;;;;5.25;2.78;;;;;;;19.66;54.83;102446.16;5031405;28;20036;-72
2021/03/28 12:00:59;;;;;;;6.55;3.22;;;;;;;19.63;54.99;102432.13;5031284;28;20033;-75
2021/03/28 12:03:33;;;;;;;14.68;3.65;;;;;;;19.63;55.13;102445.22;5040320;28;20066;-73
2021/03/28 12:06:08;;;;;;;4.80;2.45;;;;;;;19.62;55.08;102426.84;5035904;28;20025;-79
2021/03/28 12:08:56;;;;;;;6.43;3.15;;;;;;;19.61;54.99;102448.69;5018426;28;20119;-71
2021/03/28 12:11:50;;;;;;;8.73;3.65;;;;;;;19.60;54.90;102439.94;5013894;28;20377;-71
2021/03/28 12:14:29;;;;;;;4.75;2.40;;;;;;;19.62;54.92;102448.72;5031384;28;20091;-72
2021/03/28 12:17:28;;;;;;;8.15;3.42;;;;;;;19.59;55.01;102446.06;5036344;28;20143;-73
2021/03/28 12:20:03;;;;;;;5.13;2.78;;;;;;;19.58;55.11;102443.41;5026222;28;20033;-70
2021/03/28 12:22:38;;;;;;;5.05;2.30;;;;;;;19.58;54.84;102433.81;5042676;28;20033;-74
2021/03/28 12:25:18;;;;;;;6.18;2.67;;;;;;;19.57;54.64;102445.16;5030322;28;20032;-73
2021/03/28 12:28:07;;;;;;;4.05;2.75;;;;;;;19.50;55.12;102455.50;5026378;28;20116;-72
2021/03/28 12:30:40;;;;;;;6.78;2.75;;;;;;;19.49;54.89;102443.25;5029427;28;20029;-74
2021/03/28 12:33:20;;;;;;;6.30;2.38;;;;;;;19.53;54.75;102464.31;5025103;28;20030;-73
2021/03/28 12:36:05;;;;;;;7.30;2.63;;;;;;;19.50;54.77;102459.00;5025739;28;20057;-73
2021/03/28 12:38:32;;;;;;;10.52;3.00;;;;;;;19.47;55.12;102469.44;5024819;28;20028;-76
2021/03/28 12:41:13;;;;;;;6.40;2.88;;;;;;;19.44;55.25;102458.91;5028558;28;20434;-74
2021/03/28 12:44:08;;;;;;;8.35;3.42;;;;;;;19.45;55.21;102458.03;5030602;28;20055;-75
2021/03/28 12:46:51;;;;;;;5.22;2.53;;;;;;;19.45;55.26;102462.41;5027369;28;20103;-74
2021/03/28 12:49:21;;;;;;;4.88;2.35;;;;;;;19.40;55.03;102464.94;5031341;28;20502;-74
2021/03/28 12:52:23;;;;;;;6.97;2.53;;;;;;;19.40;55.26;102456.19;5044763;28;20044;-74